Time;durP1;ratioP1;P1;durP2;ratioP2;P2;SDS_P1;SDS_P2;PMS_P1;PMS_P2;Temp;Humidity;BMP_temperature;BMP_pressure;BME280_temperature;BME280_humidity;BME280_pressure;Samples;Min_cycle;Max_cycle;Signal;HPM_P1;HPM_P2
2021/12/05 00:19:58;;;;;;;5.43;1.45;;;;;;;14.82;57.97;95735.34;5014010;28;20068;-30
2021/12/05 00:22:35;;;;;;;6.65;1.85;;;;;;;14.84;57.91;95724.69;5012770;28;20061;-30
2021/12/05 00:25:04;;;;;;;11.52;2.28;;;;;;;14.84;57.85;95721.94;5013366;28;20026;-30
2021/12/05 00:27:43;;;;;;;6.10;1.80;;;;;;;14.84;57.95;95714.50;5013307;28;20026;-30
2021/12/05 00:43:55;;;;;;;11.35;1.83;;;;;;;14.75;58.91;95698.25;5013694;28;20033;-30
2021/12/05 01:09:32;;;;;;;8.30;2.13;;;;;;;14.88;58.55;95711.59;5013723;28;20135;-30
2021/12/05 01:17:03;;;;;;;9.25;2.33;;;;;;;14.78;58.67;95719.16;5017020;28;20029;-30
2021/12/05 01:19:31;;;;;;;7.38;2.10;;;;;;;14.82;58.53;95718.97;5016574;28;20029;-30
2021/12/05 01:22:05;;;;;;;5.25;1.38;;;;;;;14.78;58.92;95713.69;5016801;28;20049;-30
2021/12/05 01:27:14;;;;;;;6.47;1.33;;;;;;;14.87;58.34;95707.38;5016784;28;20034;-30
2021/12/05 02:09:42;;;;;;;6.88;1.70;;;;;;;14.81;58.50;95673.78;5013638;28;20060;-30
2021/12/05 02:37:18;;;;;;;6.90;1.10;;;;;;;14.87;57.94;95644.56;5015123;28;20028;-30
2021/12/05 02:42:26;;;;;;;2.83;1.10;;;;;;;14.88;58.13;95643.34;5015311;28;20113;-30
2021/12/05 02:44:52;;;;;;;9.90;1.70;;;;;;;14.86;58.23;95634.88;5015096;28;20017;-30
2021/12/05 02:47:21;;;;;;;4.53;1.08;;;;;;;14.84;58.49;95640.81;5015179;28;20037;-30
2021/12/05 02:49:52;;;;;;;8.90;1.58;;;;;;;14.85;58.30;95625.19;5014989;28;20444;-30
2021/12/05 02:52:27;;;;;;;8.20;1.55;;;;;;;14.86;58.40;95626.69;5015070;28;20495;-30
2021/12/05 02:54:56;;;;;;;4.25;1.08;;;;;;;14.87;57.99;95626.22;5014823;28;20033;-30
2021/12/05 03:00:11;;;;;;;5.40;1.35;;;;;;;14.89;58.40;95606.66;5014969;28;20490;-30
2021/12/05 03:02:42;;;;;;;8.02;1.50;;;;;;;14.90;58.12;95599.97;5014676;28;20109;-30
2021/12/05 03:05:13;;;;;;;4.97;1.08;;;;;;;14.88;58.11;95607.88;5014609;28;20022;-30
2021/12/05 03:07:41;;;;;;;7.07;1.15;;;;;;;14.84;58.43;95623.69;5014849;28;20057;-30
2021/12/05 03:10:10;;;;;;;5.68;1.52;;;;;;;14.94;57.97;95633.28;5014955;28;20045;-30
2021/12/05 03:12:37;;;;;;;5.20;1.00;;;;;;;14.73;58.79;95635.94;5014472;28;20030;-30
2021/12/05 03:15:09;;;;;;;6.20;1.40;;;;;;;14.84;58.59;95632.63;5014303;28;20540;-30
2021/12/05 03:17:35;;;;;;;6.63;2.17;;;;;;;14.81;58.80;95619.19;5014523;28;20104;-30
2021/12/05 03:20:01;;;;;;;9.43;1.30;;;;;;;14.87;58.37;95617.28;5014389;28;20080;-30
2021/12/05 03:22:27;;;;;;;6.18;1.63;;;;;;;14.74;58.67;95623.03;5014359;28;20030;-30
2021/12/05 03:24:52;;;;;;;8.65;1.50;;;;;;;14.87;58.26;95620.75;5014097;28;20369;-30
2021/12/05 03:27:18;;;;;;;7.43;1.35;;;;;;;14.87;58.19;95615.31;5014280;28;20030;-30
2021/12/05 03:29:43;;;;;;;6.05;1.20;;;;;;;14.93;58.21;95620.84;5014515;28;20026;-30
2021/12/05 03:32:09;;;;;;;8.60;1.52;;;;;;;14.96;57.97;95617.19;5014389;28;20494;-30
2021/12/05 03:34:34;;;;;;;5.18;1.45;;;;;;;14.93;57.89;95623.59;5013964;28;20030;-30
2021/12/05 03:37:01;;;;;;;8.70;1.40;;;;;;;14.91;57.97;95620.56;5014243;28;20017;-30
2021/12/05 03:39:27;;;;;;;4.15;1.20;;;;;;;14.91;57.94;95626.78;5013950;28;20161;-30
2021/12/05 03:41:55;;;;;;;8.25;1.50;;;;;;;14.90;57.76;95616.34;5014244;28;20495;-30
2021/12/05 03:44:23;;;;;;;7.07;1.80;;;;;;;14.92;57.73;95608.44;5013910;28;20092;-30
2021/12/05 03:46:50;;;;;;;3.17;1.40;;;;;;;14.87;57.99;95609.09;5013959;28;20160;-30
2021/12/05 03:49:16;;;;;;;8.18;1.52;;;;;;;14.80;57.91;95602.06;5013776;28;20026;-30
2021/12/05 03:51:56;;;;;;;5.18;1.42;;;;;;;14.89;57.94;95603.91;5013765;28;20108;-30
2021/12/05 03:54:22;;;;;;;9.43;1.50;;;;;;;14.80;58.35;95591.13;5013780;28;20387;-30
2021/12/05 03:56:48;;;;;;;5.70;1.20;;;;;;;14.78;58.32;95592.84;5014055;28;20022;-30
2021/12/05 03:59:14;;;;;;;8.43;1.40;;;;;;;14.88;58.06;95592.25;5013537;28;20076;-30
2021/12/05 04:01:40;;;;;;;4.65;1.33;;;;;;;14.89;57.98;95596.47;5013883;28;20464;-30
2021/12/05 04:04:08;;;;;;;9.20;1.80;;;;;;;14.85;58.10;95579.53;5013715;28;20018;-30
2021/12/05 04:06:34;;;;;;;3.38;1.27;;;;;;;14.90;58.08;95567.19;5012292;28;20088;-30
2021/12/05 04:09:05;;;;;;;7.38;1.45;;;;;;;14.88;58.00;95566.91;5013784;28;20076;-30
2021/12/05 04:11:37;;;;;;;7.57;1.52;;;;;;;14.90;57.80;95581.59;5013655;28;20435;-30
2021/12/05 04:14:06;;;;;;;8.43;1.30;;;;;;;14.88;58.05;95577.84;5012310;28;20424;-30
2021/12/05 04:16:32;;;;;;;6.15;1.40;;;;;;;14.88;57.96;95578.59;5013508;28;20032;-30
2021/12/05 04:18:58;;;;;;;6.18;1.70;;;;;;;14.89;57.92;95576.63;5013755;28;20395;-30
2021/12/05 04:21:23;;;;;;;4.43;1.00;;;;;;;14.89;58.09;95580.09;5013427;28;20057;-30
2021/12/05 04:23:49;;;;;;;7.00;1.50;;;;;;;14.90;57.79;95584.34;5013452;28;20037;-30
2021/12/05 04:26:16;;;;;;;5.55;1.10;;;;;;;14.77;58.72;95578.44;5013689;28;20030;-30
2021/12/05 04:28:42;;;;;;;7.80;1.90;;;;;;;14.74;58.54;95571.94;5013551;28;20092;-30
2021/12/05 04:31:09;;;;;;;8.05;1.17;;;;;;;14.80;58.37;95574.75;5013454;28;20453;-30
2021/12/05 04:33:36;;;;;;;6.32;1.15;;;;;;;14.85;58.37;95585.00;5028427;28;20121;-30
2021/12/05 04:36:02;;;;;;;7.72;1.42;;;;;;;14.78;58.62;95571.75;5013458;28;20041;-30
2021/12/05 04:38:28;;;;;;;11.90;2.00;;;;;;;14.74;58.77;95577.41;5013358;28;20045;-30
2021/12/05 04:40:53;;;;;;;7.30;1.42;;;;;;;14.85;58.22;95573.31;5013436;28;20468;-30
2021/12/05 04:43:19;;;;;;;6.43;1.35;;;;;;;14.88;57.97;95578.59;5013181;28;20030;-30
2021/12/05 04:45:46;;;;;;;8.63;1.40;;;;;;;14.91;57.87;95572.19;5015142;28;20018;-30
2021/12/05 04:48:13;;;;;;;4.38;0.98;;;;;;;14.87;57.96;95573.59;5017382;28;20476;-30
2021/12/05 04:50:40;;;;;;;8.52;1.52;;;;;;;14.90;57.71;95567.94;5017127;28;20088;-30
2021/12/05 04:53:06;;;;;;;6.38;1.10;;;;;;;14.91;57.83;95557.78;5017468;28;20041;-30
2021/12/05 04:55:32;;;;;;;5.70;1.58;;;;;;;14.93;57.61;95556.09;5016820;28;20026;-30
2021/12/05 04:57:58;;;;;;;6.78;1.60;;;;;;;14.92;57.65;95551.84;5016948;28;20479;-30
2021/12/05 05:00:31;;;;;;;6.78;1.27;;;;;;;14.91;57.59;95541.41;5017030;28;20100;-30
2021/12/05 05:02:57;;;;;;;5.55;1.25;;;;;;;14.92;57.71;95548.38;5015558;28;20072;-30
2021/12/05 05:05:25;;;;;;;6.82;1.25;;;;;;;14.94;57.65;95545.91;5017258;28;20026;-30
2021/12/05 05:07:50;;;;;;;6.43;1.40;;;;;;;14.92;57.37;95542.91;5016787;28;20436;-30
2021/12/05 05:10:23;;;;;;;7.00;1.63;;;;;;;14.91;57.69;95544.13;5016913;28;20072;-30
2021/12/05 05:12:50;;;;;;;5.90;1.42;;;;;;;14.92;57.54;95537.44;5017036;28;20050;-30
2021/12/05 05:15:21;;;;;;;7.35;1.58;;;;;;;14.92;57.54;95540.19;5015360;28;20113;-30
2021/12/05 05:17:49;;;;;;;5.55;1.48;;;;;;;14.91;57.50;95544.88;5016593;28;20053;-30
2021/12/05 05:20:26;;;;;;;5.43;1.30;;;;;;;14.87;57.67;95552.50;5016619;28;20053;-30
2021/12/05 05:23:45;;;;;;;6.82;1.30;;;;;;;14.91;57.51;95549.59;5016477;28;20072;-30
2021/12/05 05:45:04;;;;;;;4.45;1.52;;;;;;;14.93;57.29;95525.31;5016228;28;20029;-30
2021/12/05 05:49:59;;;;;;;5.55;1.30;;;;;;;14.93;57.30;95506.94;5016911;28;20549;-30
2021/12/05 05:52:26;;;;;;;8.40;2.20;;;;;;;14.89;57.24;95490.00;5016047;28;20040;-30
2021/12/05 05:54:54;;;;;;;4.47;1.10;;;;;;;14.97;56.84;95479.41;5015904;28;20392;-30
2021/12/05 05:57:29;;;;;;;5.50;1.60;;;;;;;15.01;56.87;95497.09;5013406;28;20054;-30
2021/12/05 06:00:08;;;;;;;4.05;1.38;;;;;;;15.00;56.79;95494.84;5015883;28;20044;-30
2021/12/05 06:05:17;;;;;;;7.50;1.70;;;;;;;14.97;56.78;95485.63;5016143;28;20157;-30
2021/12/05 06:07:45;;;;;;;5.32;1.70;;;;;;;14.99;56.73;95487.88;5015917;28;20076;-30
2021/12/05 06:10:14;;;;;;;4.55;1.20;;;;;;;14.92;56.86;95510.16;5015959;28;20026;-30
2021/12/05 06:12:40;;;;;;;4.32;1.10;;;;;;;14.97;56.92;95529.31;5015620;28;20113;-30
2021/12/05 06:15:09;;;;;;;7.60;1.42;;;;;;;14.86;56.95;95529.16;5015555;28;20396;-30
2021/12/05 06:17:36;;;;;;;6.10;1.55;;;;;;;14.98;56.70;95530.81;5015650;28;20072;-30
2021/12/05 06:20:05;;;;;;;5.22;1.35;;;;;;;15.02;56.43;95536.84;5015402;28;20029;-30
2021/12/05 06:22:30;;;;;;;2.90;1.20;;;;;;;14.97;56.56;95545.69;5015501;28;20120;-30
2021/12/05 06:24:56;;;;;;;6.43;1.90;;;;;;;14.97;56.70;95540.25;5015466;28;20104;-30
2021/12/05 06:27:21;;;;;;;7.43;1.52;;;;;;;14.91;56.71;95547.63;5015304;28;20022;-30
2021/12/05 06:29:54;;;;;;;5.05;1.13;;;;;;;14.93;56.81;95552.59;5014818;28;20361;-30
2021/12/05 06:38:03;;;;;;;10.05;1.88;;;;;;;14.91;56.85;95535.94;5028178;28;20084;-30
2021/12/05 06:45:58;;;;;;;4.60;1.98;;;;;;;14.87;57.07;95532.66;5033151;28;20021;-30
2021/12/05 06:48:32;;;;;;;6.05;2.03;;;;;;;14.95;56.89;95537.25;5029252;28;20036;-30
2021/12/05 06:50:58;;;;;;;7.97;1.75;;;;;;;14.91;57.17;95538.69;5013397;28;20033;-30
2021/12/05 06:53:24;;;;;;;9.07;2.05;;;;;;;14.91;57.13;95525.03;5013198;28;20444;-30
2021/12/05 06:55:49;;;;;;;6.65;1.40;;;;;;;14.92;56.97;95521.06;5012914;28;20420;-30
2021/12/05 06:58:15;;;;;;;6.68;1.80;;;;;;;14.91;56.83;95523.03;5012841;28;20073;-30
2021/12/05 07:00:40;;;;;;;5.25;1.35;;;;;;;14.93;57.05;95522.56;5012974;28;20053;-30
2021/12/05 07:03:07;;;;;;;5.82;1.30;;;;;;;14.91;57.04;95522.28;5012926;28;20415;-30
2021/12/05 07:05:43;;;;;;;8.88;1.50;;;;;;;14.93;57.05;95526.06;5012611;28;20060;-30
2021/12/05 07:08:10;;;;;;;4.95;1.50;;;;;;;14.94;57.03;95529.53;5011188;28;20037;-30
2021/12/05 07:10:46;;;;;;;4.60;1.30;;;;;;;14.89;57.25;95516.56;5012722;28;20030;-30
2021/12/05 07:26:29;;;;;;;4.95;1.75;;;;;;;14.87;57.24;95527.19;5025113;28;20030;-30
2021/12/05 07:42:40;;;;;;;6.65;1.58;;;;;;;14.87;57.41;95497.16;5031715;28;20475;-30
2021/12/05 07:45:20;;;;;;;7.97;1.40;;;;;;;14.84;57.77;95492.66;5032318;28;20159;-30
2021/12/05 07:47:50;;;;;;;8.48;2.10;;;;;;;14.86;57.98;95490.94;5031994;28;20140;-30
2021/12/05 07:50:16;;;;;;;7.43;1.80;;;;;;;14.92;57.48;95494.53;5031819;28;20029;-30
2021/12/05 07:52:47;;;;;;;6.25;1.70;;;;;;;14.96;57.25;95488.88;5031574;28;20072;-30
2021/12/05 07:55:20;;;;;;;6.40;1.10;;;;;;;14.90;57.68;95485.31;5031432;28;20040;-30
2021/12/05 07:58:07;;;;;;;8.00;1.55;;;;;;;14.88;57.72;95488.50;5031480;28;20132;-30
2021/12/05 08:14:49;;;;;;;5.38;1.50;;;;;;;14.87;57.77;95519.75;5009660;28;20084;-30
2021/12/05 08:17:15;;;;;;;6.43;1.52;;;;;;;14.88;57.83;95523.25;5009127;28;20069;-30
2021/12/05 08:19:40;;;;;;;5.20;1.20;;;;;;;14.86;57.84;95526.44;5008431;28;20060;-30
2021/12/05 08:22:06;;;;;;;5.55;1.30;;;;;;;14.87;57.80;95536.13;5009258;28;20066;-30
2021/12/05 08:24:37;;;;;;;5.78;1.30;;;;;;;14.87;57.74;95529.94;5009351;28;20129;-30
2021/12/05 08:27:05;;;;;;;8.48;1.75;;;;;;;14.90;57.59;95535.19;5009248;28;20073;-30
2021/12/05 08:29:44;;;;;;;9.32;1.40;;;;;;;14.56;58.89;95528.50;5009187;28;20070;-30
2021/12/05 08:35:07;;;;;;;7.07;1.70;;;;;;;14.28;59.33;95500.03;5007235;28;20454;-30
2021/12/05 08:40:32;;;;;;;7.95;1.48;;;;;;;13.92;59.68;95521.03;5016448;28;20441;-30
2021/12/05 10:12:52;;;;;;;4.50;0.90;;;;;;;14.84;52.19;95519.94;4952848;29;20059;-30
2021/12/05 10:15:40;;;;;;;1.88;0.80;;;;;;;14.85;51.90;95508.56;4952994;28;20031;-30
2021/12/05 10:37:50;;;;;;;1.40;1.02;;;;;;;14.86;51.11;95479.28;5032771;28;20036;-30
2021/12/05 10:40:22;;;;;;;2.22;1.17;;;;;;;14.76;51.01;95486.09;5033260;28;20053;-30
2021/12/05 10:42:53;;;;;;;3.78;1.45;;;;;;;14.81;51.33;95477.25;5032157;28;20112;-30
2021/12/05 10:45:38;;;;;;;2.42;1.45;;;;;;;14.85;50.92;95489.44;5032922;28;20104;-30
2021/12/05 10:48:07;;;;;;;2.97;1.80;;;;;;;14.78;51.54;95475.47;5032812;28;20025;-30
2021/12/05 10:50:35;;;;;;;3.83;2.30;;;;;;;14.79;51.34;95471.50;5032956;28;20017;-30
2021/12/05 10:53:22;;;;;;;6.68;3.22;;;;;;;14.80;51.18;95476.50;5032801;28;20037;-30
2021/12/05 10:56:16;;;;;;;5.95;2.58;;;;;;;14.70;51.49;95467.69;5024291;28;20133;-30
2021/12/05 10:58:56;;;;;;;5.18;2.35;;;;;;;14.84;51.32;95455.19;5012777;28;20056;-30
2021/12/05 11:01:49;;;;;;;3.60;2.22;;;;;;;14.92;50.98;95447.34;5028987;28;20479;-30
2021/12/05 11:04:20;;;;;;;6.03;2.67;;;;;;;14.78;51.43;95434.53;5031758;28;20090;-30
2021/12/05 11:06:50;;;;;;;5.43;2.35;;;;;;;14.85;51.32;95428.66;5032108;28;20037;-30
2021/12/05 11:09:24;;;;;;;3.80;2.30;;;;;;;14.84;51.50;95436.09;5032480;28;20049;-30
2021/12/05 11:11:56;;;;;;;4.03;2.10;;;;;;;14.81;51.64;95417.19;5031812;28;20056;-30
2021/12/05 11:14:28;;;;;;;3.53;2.30;;;;;;;14.67;51.49;95419.53;5031933;28;20034;-30
2021/12/05 11:16:53;;;;;;;5.13;2.53;;;;;;;14.59;51.69;95418.41;5031731;28;20620;-30
2021/12/05 11:19:41;;;;;;;4.07;2.10;;;;;;;14.55;52.16;95417.88;5032014;28;20124;-30
2021/12/05 11:22:23;;;;;;;4.57;2.33;;;;;;;14.88;51.24;95405.84;5017528;28;20051;-30
2021/12/05 11:24:55;;;;;;;3.70;1.92;;;;;;;14.76;51.56;95404.22;5032215;28;20180;-30
2021/12/05 11:27:29;;;;;;;4.53;1.95;;;;;;;14.86;51.79;95411.03;5030957;28;20485;-30
2021/12/05 11:30:13;;;;;;;4.53;2.25;;;;;;;14.84;51.86;95408.03;5029819;28;20040;-30
2021/12/05 11:32:50;;;;;;;3.28;1.92;;;;;;;14.97;51.28;95403.72;5022730;28;20176;-30
2021/12/05 11:35:21;;;;;;;2.78;1.60;;;;;;;14.97;51.34;95406.47;5029683;28;20051;-30
2021/12/05 11:37:52;;;;;;;4.18;1.85;;;;;;;14.94;51.43;95395.75;5028779;28;20109;-30
2021/12/05 11:40:18;;;;;;;3.67;1.75;;;;;;;14.83;51.78;95392.91;5031812;28;20361;-30
2021/12/05 11:43:02;;;;;;;3.78;1.70;;;;;;;14.63;52.02;95397.13;5031264;28;20021;-30
2021/12/05 11:45:30;;;;;;;3.58;1.45;;;;;;;14.69;51.48;95410.84;5031553;28;20049;-30
2021/12/05 11:47:56;;;;;;;3.97;1.88;;;;;;;14.79;51.23;95408.72;5031776;28;20029;-30
2021/12/05 11:50:34;;;;;;;3.15;1.55;;;;;;;14.84;50.59;95416.22;5031707;28;20399;-30
2021/12/05 11:53:00;;;;;;;3.08;1.50;;;;;;;14.87;50.42;95409.81;5031579;28;20034;-30
2021/12/05 11:55:28;;;;;;;4.80;1.80;;;;;;;14.86;50.42;95411.78;5030268;28;20044;-30
2021/12/05 11:57:54;;;;;;;3.28;1.40;;;;;;;14.92;49.97;95409.88;5033502;28;20103;-30
2021/12/05 12:00:23;;;;;;;2.42;1.25;;;;;;;14.61;50.10;95412.47;5033285;28;20414;-30
2021/12/05 12:02:50;;;;;;;2.55;1.25;;;;;;;14.75;49.54;95403.47;5033072;28;20029;-30
2021/12/05 12:05:29;;;;;;;2.78;1.23;;;;;;;14.77;49.39;95400.28;5033301;28;20025;-30
2021/12/05 12:07:57;;;;;;;3.80;1.40;;;;;;;14.80;49.09;95399.31;5013540;28;20022;-30
2021/12/05 12:10:37;;;;;;;2.42;1.30;;;;;;;14.69;48.82;95408.88;5013520;28;20025;-30
2021/12/05 12:13:18;;;;;;;4.70;1.55;;;;;;;14.11;45.96;95403.56;5012820;28;20468;-30
2021/12/05 12:15:45;;;;;;;2.25;1.08;;;;;;;14.40;48.35;95403.53;5013984;28;20030;-30
2021/12/05 12:18:27;;;;;;;3.28;1.00;;;;;;;14.35;47.21;95390.53;5013641;28;20029;-30
2021/12/05 12:20:55;;;;;;;5.07;1.83;;;;;;;14.28;44.48;95393.66;5013564;28;20036;-30
2021/12/05 12:23:22;;;;;;;1.85;1.05;;;;;;;14.24;47.87;95382.19;5013765;28;20468;-30
2021/12/05 12:25:51;;;;;;;5.68;1.30;;;;;;;14.35;46.57;95393.25;5013427;28;20464;-30
2021/12/05 12:28:17;;;;;;;2.13;0.93;;;;;;;14.44;46.95;95368.63;5013663;28;20458;-30
2021/12/05 12:30:46;;;;;;;2.50;1.02;;;;;;;13.87;48.77;95368.28;5013708;28;20110;-30
2021/12/05 12:33:17;;;;;;;2.83;1.00;;;;;;;14.19;47.76;95369.25;5013068;28;20029;-30
2021/12/05 12:35:48;;;;;;;2.05;0.85;;;;;;;14.27;48.15;95365.66;5013494;28;20029;-30
2021/12/05 12:38:17;;;;;;;2.88;0.90;;;;;;;14.53;47.56;95365.75;5013431;28;20025;-30
2021/12/05 12:40:47;;;;;;;2.20;1.15;;;;;;;14.67;47.11;95366.91;5013508;28;20026;-30
2021/12/05 12:43:46;;;;;;;3.20;1.05;;;;;;;14.07;47.32;95362.16;5013514;28;20142;-30
2021/12/05 12:46:26;;;;;;;3.25;0.85;;;;;;;14.17;48.27;95361.53;5013036;28;20530;-30
2021/12/05 12:49:22;;;;;;;2.85;0.70;;;;;;;13.97;47.44;95356.78;5013186;28;20388;-30
2021/12/05 12:52:10;;;;;;;2.30;0.68;;;;;;;14.24;47.10;95352.97;5013225;28;20105;-30
2021/12/05 12:54:48;;;;;;;2.80;1.13;;;;;;;14.24;47.42;95349.47;5013356;28;20033;-30
2021/12/05 12:57:32;;;;;;;1.23;0.70;;;;;;;14.19;47.48;95345.47;5013180;28;20041;-30
2021/12/05 13:00:05;;;;;;;3.30;0.85;;;;;;;14.35;46.28;95339.47;5012493;28;20120;-30
2021/12/05 13:02:56;;;;;;;2.70;0.65;;;;;;;13.64;47.68;95329.81;5011434;28;20391;-30
2021/12/05 13:07:14;;;;;;;1.58;0.70;;;;;;;14.08;45.95;95331.69;5012247;28;20030;-30
2021/12/05 13:11:21;;;;;;;3.15;0.57;;;;;;;14.15;45.65;95319.63;5016793;28;20029;-30
2021/12/05 13:13:59;;;;;;;1.50;0.63;;;;;;;14.16;46.19;95327.31;5016965;28;20022;-30
2021/12/05 13:16:29;;;;;;;2.33;0.82;;;;;;;14.24;45.88;95325.69;5016711;28;20026;-30
2021/12/05 13:19:04;;;;;;;1.27;0.57;;;;;;;14.51;46.15;95330.00;5016951;28;20018;-30
2021/12/05 13:21:39;;;;;;;1.30;0.70;;;;;;;14.57;45.45;95330.84;5016229;28;20100;-30
2021/12/05 13:24:26;;;;;;;1.27;0.70;;;;;;;14.21;45.77;95328.63;5016569;28;20361;-30
2021/12/05 13:27:23;;;;;;;2.60;0.80;;;;;;;14.41;45.97;95331.38;5016417;28;20460;-30
2021/12/05 13:29:51;;;;;;;1.02;0.50;;;;;;;14.41;46.02;95334.13;5015107;28;20038;-30
2021/12/05 13:32:25;;;;;;;1.17;0.60;;;;;;;14.50;45.37;95339.44;5016403;28;20029;-30
2021/12/05 13:34:56;;;;;;;1.98;0.68;;;;;;;14.61;45.78;95330.63;5016294;28;20025;-30
2021/12/05 13:37:21;;;;;;;2.50;0.52;;;;;;;14.41;46.03;95330.63;5016332;28;20026;-30
2021/12/05 13:39:49;;;;;;;2.13;0.70;;;;;;;14.44;46.13;95330.44;5016477;28;20024;-30
2021/12/05 13:42:42;;;;;;;2.78;0.52;;;;;;;14.57;45.34;95328.13;5016005;28;20589;-30
2021/12/05 13:45:11;;;;;;;2.63;0.80;;;;;;;14.38;45.25;95322.16;5016229;28;20030;-30
2021/12/05 13:47:51;;;;;;;1.92;0.55;;;;;;;14.32;45.47;95329.53;5016211;28;20036;-30
2021/12/05 13:52:58;;;;;;;2.92;0.80;;;;;;;14.57;44.98;95333.56;5016051;28;20057;-30
2021/12/05 13:55:34;;;;;;;0.80;0.50;;;;;;;14.53;44.46;95324.84;5024805;28;20175;-30
2021/12/05 13:58:40;;;;;;;3.03;0.70;;;;;;;14.38;44.70;95327.59;5033346;28;20056;-30
2021/12/05 14:01:21;;;;;;;1.83;0.50;;;;;;;14.36;41.04;95321.13;5035893;28;20060;-30
2021/12/05 14:03:55;;;;;;;1.35;0.52;;;;;;;14.30;44.66;95325.78;5035803;28;20025;-30
2021/12/05 14:06:29;;;;;;;2.05;0.63;;;;;;;14.39;44.95;95328.34;5035401;28;20052;-30
2021/12/05 14:09:02;;;;;;;0.63;0.40;;;;;;;14.36;44.88;95315.66;5035505;28;20021;-30
2021/12/05 14:11:27;;;;;;;2.35;0.52;;;;;;;14.40;44.77;95327.16;5035523;28;20105;-30
2021/12/05 14:13:54;;;;;;;1.58;0.50;;;;;;;14.14;44.42;95327.03;5035398;28;20112;-30
2021/12/05 14:16:20;;;;;;;2.83;0.65;;;;;;;14.21;43.83;95329.38;5034838;28;20033;-30
2021/12/05 14:18:46;;;;;;;1.15;0.50;;;;;;;14.43;42.58;95336.38;5034871;28;20072;-30
2021/12/05 14:21:18;;;;;;;2.10;0.60;;;;;;;14.43;41.53;95331.66;5035267;28;20411;-30
2021/12/05 14:23:48;;;;;;;2.83;0.80;;;;;;;14.54;43.47;95337.25;5035248;28;20427;-30
2021/12/05 14:26:16;;;;;;;1.42;0.60;;;;;;;14.68;43.51;95339.16;5034730;28;20041;-30
2021/12/05 14:28:42;;;;;;;2.60;0.77;;;;;;;14.78;43.01;95336.28;5034524;28;20171;-30
2021/12/05 14:31:08;;;;;;;1.83;0.65;;;;;;;14.54;43.78;95344.69;5034817;28;20120;-30
2021/12/05 14:33:53;;;;;;;2.15;0.55;;;;;;;14.58;44.00;95351.44;5034857;28;20490;-30
2021/12/05 14:36:29;;;;;;;2.42;0.75;;;;;;;14.27;43.70;95365.66;5035234;28;20049;-30
2021/12/05 14:39:13;;;;;;;1.90;0.47;;;;;;;14.58;43.52;95359.63;5035233;28;20026;-30
2021/12/05 14:41:41;;;;;;;1.00;0.40;;;;;;;14.72;43.33;95368.94;5035019;28;20048;-30
2021/12/05 14:44:07;;;;;;;1.85;0.63;;;;;;;14.20;43.84;95370.75;5034877;28;20029;-30
2021/12/05 14:46:33;;;;;;;1.52;0.50;;;;;;;14.26;42.84;95374.31;5034872;28;20025;-30
2021/12/05 14:49:02;;;;;;;2.65;0.65;;;;;;;14.48;43.59;95373.84;5034887;28;20036;-30
2021/12/05 14:51:38;;;;;;;1.15;0.50;;;;;;;13.85;40.08;95374.22;5034957;28;20487;-30
2021/12/05 14:54:05;;;;;;;1.67;0.70;;;;;;;14.15;43.89;95371.41;5034633;28;20037;-30
2021/12/05 14:56:34;;;;;;;1.02;0.50;;;;;;;14.48;43.51;95374.63;5034598;28;20071;-30
2021/12/05 14:59:11;;;;;;;1.55;0.60;;;;;;;14.56;43.39;95369.50;5034742;28;20049;-30
2021/12/05 15:01:40;;;;;;;1.55;0.70;;;;;;;14.49;43.53;95370.66;5034695;28;20029;-30
2021/12/05 15:04:09;;;;;;;1.85;1.17;;;;;;;14.62;43.33;95364.88;5034422;28;20468;-30
2021/12/05 15:06:39;;;;;;;3.15;1.00;;;;;;;14.63;43.39;95364.38;5034421;28;20021;-30
2021/12/05 15:09:22;;;;;;;2.25;1.10;;;;;;;14.58;43.26;95359.63;5034412;28;20025;-30
2021/12/05 15:11:53;;;;;;;2.85;1.10;;;;;;;14.74;43.21;95367.25;5034260;28;20112;-30
2021/12/05 15:14:20;;;;;;;1.67;1.10;;;;;;;14.69;43.19;95372.66;5034266;28;20041;-30
2021/12/05 15:17:04;;;;;;;3.38;1.30;;;;;;;14.79;42.85;95387.66;5034830;28;20104;-30
2021/12/05 15:19:29;;;;;;;3.92;1.20;;;;;;;14.78;43.22;95397.06;5034302;28;20029;-30
2021/12/05 15:21:56;;;;;;;1.90;0.88;;;;;;;14.77;43.47;95403.00;5034269;28;20060;-30
2021/12/05 15:24:25;;;;;;;5.30;1.20;;;;;;;14.78;43.53;95399.78;5034055;28;20026;-30
2021/12/05 15:26:52;;;;;;;1.77;0.80;;;;;;;14.81;43.54;95392.63;5034034;28;20025;-30
2021/12/05 15:29:17;;;;;;;3.65;1.20;;;;;;;14.78;43.32;95388.13;5033808;28;20029;-30
2021/12/05 15:31:44;;;;;;;2.33;1.40;;;;;;;14.84;43.65;95391.66;5034259;28;20021;-30
2021/12/05 15:34:32;;;;;;;3.03;1.60;;;;;;;14.81;43.44;95387.94;5033872;28;20530;-30
2021/12/05 15:37:05;;;;;;;5.40;2.00;;;;;;;14.81;43.29;95392.63;5033833;28;20037;-30
2021/12/05 15:39:30;;;;;;;4.43;2.13;;;;;;;14.82;43.63;95400.34;5033922;28;20104;-30
2021/12/05 15:41:58;;;;;;;4.38;1.90;;;;;;;14.84;43.49;95408.03;5034066;28;20109;-30
2021/12/05 15:44:26;;;;;;;4.18;1.98;;;;;;;14.81;43.49;95409.75;5033873;28;20376;-30
2021/12/05 15:47:00;;;;;;;3.45;1.85;;;;;;;14.82;43.86;95414.00;5034209;28;20431;-30
2021/12/05 15:49:28;;;;;;;5.13;2.00;;;;;;;14.81;43.74;95417.19;5032469;28;20472;-30
2021/12/05 15:52:03;;;;;;;5.55;2.22;;;;;;;14.84;43.70;95422.44;5033799;28;20036;-30
2021/12/05 15:54:28;;;;;;;5.53;2.40;;;;;;;14.83;43.77;95420.22;5032182;28;20017;-30
2021/12/05 15:57:09;;;;;;;3.97;1.60;;;;;;;14.83;44.10;95414.75;5033745;28;20029;-30
2021/12/05 15:59:39;;;;;;;4.60;1.95;;;;;;;14.80;43.89;95415.69;5033839;28;20160;-30
2021/12/05 16:02:10;;;;;;;4.00;2.03;;;;;;;14.74;43.70;95421.81;5033688;28;20025;-30
2021/12/05 16:04:37;;;;;;;5.07;2.17;;;;;;;14.74;44.05;95421.81;5033336;28;20013;-30
2021/12/05 16:07:08;;;;;;;2.60;1.80;;;;;;;14.76;43.99;95429.53;5033454;28;20045;-30
2021/12/05 16:09:34;;;;;;;6.20;3.15;;;;;;;14.77;43.99;95427.56;5033581;28;20029;-30
2021/12/05 16:12:19;;;;;;;3.50;2.13;;;;;;;14.82;43.83;95418.72;5032149;28;20025;-30
2021/12/05 16:14:49;;;;;;;6.18;3.25;;;;;;;14.77;43.73;95417.41;5033420;28;20030;-30
2021/12/05 16:17:27;;;;;;;5.47;2.70;;;;;;;14.78;43.67;95412.69;5033416;28;20430;-30
2021/12/05 16:20:15;;;;;;;6.43;3.30;;;;;;;14.79;43.96;95420.41;5033335;28;20029;-30
2021/12/05 16:23:06;;;;;;;6.13;3.53;;;;;;;14.74;43.93;95407.44;5033261;28;20036;-30
2021/12/05 16:25:56;;;;;;;6.20;3.20;;;;;;;14.80;43.87;95410.25;5033520;28;20414;-30
2021/12/05 16:28:30;;;;;;;8.40;3.53;;;;;;;14.80;43.89;95410.25;5033507;28;20026;-30
2021/12/05 16:31:03;;;;;;;7.57;3.45;;;;;;;14.84;43.95;95399.84;5032343;28;20052;-30
2021/12/05 16:33:29;;;;;;;6.32;3.72;;;;;;;14.79;43.78;95409.50;5033200;28;20029;-30
2021/12/05 16:35:58;;;;;;;7.63;4.38;;;;;;;14.82;44.01;95407.78;5033522;28;20037;-30
2021/12/05 16:38:34;;;;;;;7.70;4.38;;;;;;;14.73;43.76;95409.41;5032977;28;20041;-30
2021/12/05 16:41:21;;;;;;;6.05;3.80;;;;;;;14.74;43.53;95412.88;5035175;28;20055;-30
2021/12/05 16:43:51;;;;;;;8.75;4.40;;;;;;;14.75;43.63;95425.31;5037275;28;20091;-30
2021/12/05 16:46:26;;;;;;;9.45;5.10;;;;;;;14.82;43.81;95415.97;5036888;28;20076;-30
2021/12/05 16:48:52;;;;;;;7.63;4.35;;;;;;;14.81;43.65;95422.66;5037100;28;20430;-30
2021/12/05 16:51:20;;;;;;;6.75;4.55;;;;;;;14.73;43.76;95428.50;5036911;28;20033;-30
2021/12/05 16:53:50;;;;;;;6.40;4.13;;;;;;;14.81;44.01;95420.69;5036868;28;20025;-30
2021/12/05 16:56:34;;;;;;;7.30;4.43;;;;;;;14.79;43.81;95427.84;5037210;28;20055;-30
2021/12/05 16:59:27;;;;;;;5.60;3.67;;;;;;;14.81;43.70;95422.66;5036758;28;20081;-30
2021/12/05 17:02:13;;;;;;;11.40;4.25;;;;;;;14.67;43.90;95424.22;5036443;28;20041;-30
2021/12/05 17:05:21;;;;;;;8.38;4.07;;;;;;;14.82;43.68;95424.16;5036728;28;20040;-30
2021/12/05 17:07:48;;;;;;;7.63;4.57;;;;;;;14.76;43.59;95431.53;5036645;28;20124;-30
2021/12/05 17:10:19;;;;;;;8.27;5.18;;;;;;;14.76;43.77;95431.53;5036610;28;20502;-30
2021/12/05 17:12:45;;;;;;;9.10;4.75;;;;;;;14.76;43.41;95432.28;5036573;28;20109;-30
2021/12/05 17:15:26;;;;;;;8.85;5.25;;;;;;;14.77;43.43;95436.50;5036342;28;20029;-30
2021/12/05 17:18:01;;;;;;;9.85;5.35;;;;;;;14.76;43.60;95445.91;5035544;28;20557;-30
2021/12/05 17:20:37;;;;;;;8.60;5.10;;;;;;;14.79;43.65;95444.22;5036620;28;20045;-30
2021/12/05 17:23:05;;;;;;;9.27;5.55;;;;;;;14.76;43.37;95447.91;5036437;28;20472;-30
2021/12/05 17:25:33;;;;;;;8.85;4.95;;;;;;;14.76;43.44;95442.44;5036310;28;20040;-30
2021/12/05 17:28:02;;;;;;;7.97;4.88;;;;;;;14.78;43.79;95434.53;5036036;28;20108;-30